sensor_id;sensor_type;location;lat;lon;timestamp;pressure;altitude;pressure_sealevel;temperature;humidity
42771;BME280;28426;42.872;25.314;2023-05-22T00:02:16;96855.44;;;12.09;78.86
42771;BME280;28426;42.872;25.314;2023-05-22T00:04:49;96850.88;;;12.10;78.92
42771;BME280;28426;42.872;25.314;2023-05-22T00:07:23;96845.72;;;12.08;78.80
42771;BME280;28426;42.872;25.314;2023-05-22T00:09:54;96843.88;;;12.09;78.90
42771;BME280;28426;42.872;25.314;2023-05-22T00:12:25;96839.38;;;12.09;79.05
42771;BME280;28426;42.872;25.314;2023-05-22T00:14:56;96835.03;;;12.08;79.14
42771;BME280;28426;42.872;25.314;2023-05-22T00:17:30;96836.06;;;12.07;78.70
42771;BME280;28426;42.872;25.314;2023-05-22T00:20:01;96834.44;;;12.06;78.70
42771;BME280;28426;42.872;25.314;2023-05-22T00:22:37;96839.31;;;12.02;78.98
42771;BME280;28426;42.872;25.314;2023-05-22T00:25:10;96828.19;;;11.99;79.02
42771;BME280;28426;42.872;25.314;2023-05-22T00:27:41;96827.56;;;11.97;78.88
42771;BME280;28426;42.872;25.314;2023-05-22T00:30:12;96827.97;;;11.94;79.19
42771;BME280;28426;42.872;25.314;2023-05-22T00:32:43;96831.03;;;11.90;79.20
42771;BME280;28426;42.872;25.314;2023-05-22T00:35:15;96831.25;;;11.89;79.46
42771;BME280;28426;42.872;25.314;2023-05-22T00:37:48;96830.44;;;11.88;79.41
42771;BME280;28426;42.872;25.314;2023-05-22T00:40:20;96824.44;;;11.86;79.48
42771;BME280;28426;42.872;25.314;2023-05-22T00:42:51;96834.31;;;11.86;79.43
42771;BME280;28426;42.872;25.314;2023-05-22T00:45:22;96829.78;;;11.86;79.34
42771;BME280;28426;42.872;25.314;2023-05-22T00:47:53;96831.84;;;11.84;79.50
42771;BME280;28426;42.872;25.314;2023-05-22T00:50:24;96830.19;;;11.83;79.52
42771;BME280;28426;42.872;25.314;2023-05-22T00:52:57;96834.09;;;11.81;79.42
42771;BME280;28426;42.872;25.314;2023-05-22T00:55:28;96834.31;;;11.79;79.44
42771;BME280;28426;42.872;25.314;2023-05-22T00:57:59;96829.16;;;11.77;79.49
42771;BME280;28426;42.872;25.314;2023-05-22T01:00:35;96835.53;;;11.76;79.61
42771;BME280;28426;42.872;25.314;2023-05-22T01:03:07;96829.72;;;11.73;79.44
42771;BME280;28426;42.872;25.314;2023-05-22T01:05:39;96830.16;;;11.70;79.51
42771;BME280;28426;42.872;25.314;2023-05-22T01:08:13;96829.69;;;11.66;79.53
42771;BME280;28426;42.872;25.314;2023-05-22T01:10:44;96828.25;;;11.63;79.50
42771;BME280;28426;42.872;25.314;2023-05-22T01:13:21;96835.00;;;11.59;79.61
42771;BME280;28426;42.872;25.314;2023-05-22T01:16:07;96819.41;;;11.56;79.60
42771;BME280;28426;42.872;25.314;2023-05-22T01:18:45;96822.47;;;11.53;79.56
42771;BME280;28426;42.872;25.314;2023-05-22T01:21:24;96818.53;;;11.49;79.63
42771;BME280;28426;42.872;25.314;2023-05-22T01:24:30;96822.44;;;11.46;79.96
42771;BME280;28426;42.872;25.314;2023-05-22T01:27:23;96819.34;;;11.43;79.92
42771;BME280;28426;42.872;25.314;2023-05-22T01:30:20;96823.41;;;11.38;79.87
42771;BME280;28426;42.872;25.314;2023-05-22T01:33:00;96815.78;;;11.35;80.03
42771;BME280;28426;42.872;25.314;2023-05-22T01:35:34;96810.22;;;11.30;80.06
42771;BME280;28426;42.872;25.314;2023-05-22T01:38:08;96815.75;;;11.29;80.10
42771;BME280;28426;42.872;25.314;2023-05-22T01:40:40;96818.00;;;11.25;80.09
42771;BME280;28426;42.872;25.314;2023-05-22T01:43:12;96814.06;;;11.21;80.21
42771;BME280;28426;42.872;25.314;2023-05-22T01:45:44;96820.44;;;11.20;80.24
42771;BME280;28426;42.872;25.314;2023-05-22T01:48:18;96810.97;;;11.17;80.31
42771;BME280;28426;42.872;25.314;2023-05-22T01:50:50;96813.84;;;11.16;80.25
42771;BME280;28426;42.872;25.314;2023-05-22T01:53:27;96809.53;;;11.15;80.41
42771;BME280;28426;42.872;25.314;2023-05-22T01:56:02;96813.19;;;11.14;80.45
42771;BME280;28426;42.872;25.314;2023-05-22T01:58:41;96817.09;;;11.11;80.59
42771;BME280;28426;42.872;25.314;2023-05-22T02:01:17;96817.91;;;11.11;80.69
42771;BME280;28426;42.872;25.314;2023-05-22T02:03:54;96812.56;;;11.11;80.83
42771;BME280;28426;42.872;25.314;2023-05-22T02:06:27;96812.75;;;11.10;80.56
42771;BME280;28426;42.872;25.314;2023-05-22T02:09:01;96813.78;;;11.09;80.67
42771;BME280;28426;42.872;25.314;2023-05-22T02:11:33;96811.31;;;11.07;80.57
42771;BME280;28426;42.872;25.314;2023-05-22T02:14:07;96808.84;;;11.06;80.53
42771;BME280;28426;42.872;25.314;2023-05-22T02:16:38;96810.88;;;11.04;80.48
42771;BME280;28426;42.872;25.314;2023-05-22T02:19:16;96815.59;;;11.02;80.56
42771;BME280;28426;42.872;25.314;2023-05-22T02:22:07;96814.97;;;10.99;80.70
42771;BME280;28426;42.872;25.314;2023-05-22T02:24:41;96817.81;;;10.98;80.92
42771;BME280;28426;42.872;25.314;2023-05-22T02:27:14;96818.84;;;10.97;80.71
42771;BME280;28426;42.872;25.314;2023-05-22T02:29:46;96825.19;;;10.96;80.81
42771;BME280;28426;42.872;25.314;2023-05-22T02:32:17;96821.91;;;10.94;80.82
42771;BME280;28426;42.872;25.314;2023-05-22T02:34:50;96820.25;;;10.93;80.77
42771;BME280;28426;42.872;25.314;2023-05-22T02:37:21;96819.00;;;10.89;80.52
42771;BME280;28426;42.872;25.314;2023-05-22T02:39:52;96817.53;;;10.86;80.49
42771;BME280;28426;42.872;25.314;2023-05-22T02:42:24;96819.56;;;10.84;80.63
42771;BME280;28426;42.872;25.314;2023-05-22T02:44:55;96819.75;;;10.82;80.44
42771;BME280;28426;42.872;25.314;2023-05-22T02:47:25;96819.13;;;10.80;80.49
42771;BME280;28426;42.872;25.314;2023-05-22T02:49:59;96813.16;;;10.78;80.62
42771;BME280;28426;42.872;25.314;2023-05-22T02:52:32;96816.84;;;10.77;80.41
42771;BME280;28426;42.872;25.314;2023-05-22T02:55:07;96816.22;;;10.75;80.70
42771;BME280;28426;42.872;25.314;2023-05-22T02:57:38;96820.09;;;10.72;80.50
42771;BME280;28426;42.872;25.314;2023-05-22T03:00:12;96823.16;;;10.69;80.61
42771;BME280;28426;42.872;25.314;2023-05-22T03:02:43;96814.72;;;10.66;80.65
42771;BME280;28426;42.872;25.314;2023-05-22T03:05:18;96814.06;;;10.64;80.52
42771;BME280;28426;42.872;25.314;2023-05-22T03:07:51;96820.44;;;10.63;80.48
42771;BME280;28426;42.872;25.314;2023-05-22T03:10:22;96820.81;;;10.59;80.85
42771;BME280;28426;42.872;25.314;2023-05-22T03:12:53;96819.16;;;10.58;80.67
42771;BME280;28426;42.872;25.314;2023-05-22T03:15:24;96821.03;;;10.58;81.03
42771;BME280;28426;42.872;25.314;2023-05-22T03:18:01;96815.69;;;10.58;80.93
42771;BME280;28426;42.872;25.314;2023-05-22T03:20:34;96820.81;;;10.59;80.95
42771;BME280;28426;42.872;25.314;2023-05-22T03:23:05;96823.47;;;10.59;81.16
42771;BME280;28426;42.872;25.314;2023-05-22T03:25:36;96818.13;;;10.59;80.91
42771;BME280;28426;42.872;25.314;2023-05-22T03:28:07;96820.81;;;10.59;81.08
42771;BME280;28426;42.872;25.314;2023-05-22T03:30:40;96817.13;;;10.61;81.28
42771;BME280;28426;42.872;25.314;2023-05-22T03:33:17;96816.13;;;10.62;81.21
42771;BME280;28426;42.872;25.314;2023-05-22T03:35:51;96824.50;;;10.58;81.22
42771;BME280;28426;42.872;25.314;2023-05-22T03:38:23;96818.53;;;10.56;81.31
42771;BME280;28426;42.872;25.314;2023-05-22T03:40:54;96824.88;;;10.55;81.08
42771;BME280;28426;42.872;25.314;2023-05-22T03:43:25;96821.59;;;10.53;81.13
42771;BME280;28426;42.872;25.314;2023-05-22T03:45:55;96827.75;;;10.54;81.19
42771;BME280;28426;42.872;25.314;2023-05-22T03:48:27;96823.22;;;10.54;81.19
42771;BME280;28426;42.872;25.314;2023-05-22T03:51:01;96824.88;;;10.55;81.09
42771;BME280;28426;42.872;25.314;2023-05-22T03:53:32;96820.19;;;10.57;81.17
42771;BME280;28426;42.872;25.314;2023-05-22T03:56:04;96824.94;;;10.62;81.25
42771;BME280;28426;42.872;25.314;2023-05-22T03:58:34;96823.75;;;10.65;81.35
42771;BME280;28426;42.872;25.314;2023-05-22T04:01:06;96824.97;;;10.69;81.32
42771;BME280;28426;42.872;25.314;2023-05-22T04:03:39;96835.28;;;10.72;81.21
42771;BME280;28426;42.872;25.314;2023-05-22T04:06:12;96824.22;;;10.75;81.10
42771;BME280;28426;42.872;25.314;2023-05-22T04:08:45;96823.00;;;10.78;81.15
42771;BME280;28426;42.872;25.314;2023-05-22T04:11:16;96823.44;;;10.81;81.26
42771;BME280;28426;42.872;25.314;2023-05-22T04:13:49;96825.56;;;10.86;81.19
42771;BME280;28426;42.872;25.314;2023-05-22T04:16:20;96817.78;;;10.91;81.20
42771;BME280;28426;42.872;25.314;2023-05-22T04:18:51;96814.72;;;10.94;81.24
42771;BME280;28426;42.872;25.314;2023-05-22T04:21:24;96807.75;;;11.00;81.28
42771;BME280;28426;42.872;25.314;2023-05-22T04:23:55;96810.88;;;11.04;81.08
42771;BME280;28426;42.872;25.314;2023-05-22T04:26:26;96811.31;;;11.07;81.19
42771;BME280;28426;42.872;25.314;2023-05-22T04:28:59;96821.41;;;11.12;81.09
42771;BME280;28426;42.872;25.314;2023-05-22T04:31:30;96820.81;;;11.17;81.24
42771;BME280;28426;42.872;25.314;2023-05-22T04:34:01;96820.03;;;11.23;81.36
42771;BME280;28426;42.872;25.314;2023-05-22T04:36:35;96818.22;;;11.30;81.16
42771;BME280;28426;42.872;25.314;2023-05-22T04:39:06;96816.63;;;11.36;81.29
42771;BME280;28426;42.872;25.314;2023-05-22T04:41:37;96807.44;;;11.45;81.20
42771;BME280;28426;42.872;25.314;2023-05-22T04:44:08;96814.25;;;11.55;81.33
42771;BME280;28426;42.872;25.314;2023-05-22T04:46:39;96811.22;;;11.64;81.15
42771;BME280;28426;42.872;25.314;2023-05-22T04:49:10;96814.94;;;11.77;81.29
42771;BME280;28426;42.872;25.314;2023-05-22T04:51:44;96814.00;;;11.92;81.30
42771;BME280;28426;42.872;25.314;2023-05-22T04:54:15;96815.31;;;12.09;81.49
42771;BME280;28426;42.872;25.314;2023-05-22T04:56:46;96811.44;;;12.25;81.36
42771;BME280;28426;42.872;25.314;2023-05-22T04:59:16;96821.75;;;12.49;81.33
42771;BME280;28426;42.872;25.314;2023-05-22T05:01:50;96825.06;;;12.71;81.12
42771;BME280;28426;42.872;25.314;2023-05-22T05:04:21;96816.00;;;12.92;80.33
42771;BME280;28426;42.872;25.314;2023-05-22T05:06:55;96819.25;;;13.15;79.71
42771;BME280;28426;42.872;25.314;2023-05-22T05:09:29;96818.41;;;13.34;79.05
42771;BME280;28426;42.872;25.314;2023-05-22T05:12:01;96814.66;;;13.56;77.69
42771;BME280;28426;42.872;25.314;2023-05-22T05:14:32;96814.59;;;13.76;77.02
42771;BME280;28426;42.872;25.314;2023-05-22T05:17:04;96808.28;;;13.96;76.69
42771;BME280;28426;42.872;25.314;2023-05-22T05:19:35;96814.59;;;14.15;76.67
42771;BME280;28426;42.872;25.314;2023-05-22T05:22:09;96816.94;;;14.37;76.76
42771;BME280;28426;42.872;25.314;2023-05-22T05:24:40;96817.81;;;14.63;76.32
42771;BME280;28426;42.872;25.314;2023-05-22T05:27:11;96817.16;;;14.93;75.57
42771;BME280;28426;42.872;25.314;2023-05-22T05:29:43;96809.03;;;15.25;75.25
42771;BME280;28426;42.872;25.314;2023-05-22T05:32:26;96809.63;;;15.65;75.10
42771;BME280;28426;42.872;25.314;2023-05-22T05:35:15;96811.41;;;16.08;74.25
42771;BME280;28426;42.872;25.314;2023-05-22T05:37:53;96804.38;;;16.50;72.64
42771;BME280;28426;42.872;25.314;2023-05-22T05:40:27;96808.31;;;16.90;71.48
42771;BME280;28426;42.872;25.314;2023-05-22T05:42:58;96802.50;;;17.29;70.49
42771;BME280;28426;42.872;25.314;2023-05-22T05:45:29;96804.44;;;17.70;69.18
42771;BME280;28426;42.872;25.314;2023-05-22T05:48:00;96799.53;;;18.08;67.75
42771;BME280;28426;42.872;25.314;2023-05-22T05:50:34;96803.19;;;18.48;66.35
42771;BME280;28426;42.872;25.314;2023-05-22T05:53:08;96798.22;;;18.91;64.56
42771;BME280;28426;42.872;25.314;2023-05-22T05:55:46;96805.56;;;19.30;63.74
42771;BME280;28426;42.872;25.314;2023-05-22T05:58:19;96809.41;;;19.73;62.37
42771;BME280;28426;42.872;25.314;2023-05-22T06:01:06;96800.50;;;20.23;60.66
42771;BME280;28426;42.872;25.314;2023-05-22T06:03:37;96803.22;;;20.50;58.83
42771;BME280;28426;42.872;25.314;2023-05-22T06:06:21;96808.34;;;20.80;58.38
42771;BME280;28426;42.872;25.314;2023-05-22T06:09:11;96795.09;;;21.16;57.40
42771;BME280;28426;42.872;25.314;2023-05-22T06:12:02;96799.09;;;21.56;55.98
42771;BME280;28426;42.872;25.314;2023-05-22T06:14:32;96798.22;;;21.94;55.22
42771;BME280;28426;42.872;25.314;2023-05-22T06:17:04;96785.81;;;22.29;53.97
42771;BME280;28426;42.872;25.314;2023-05-22T06:19:38;96787.50;;;22.56;53.04
42771;BME280;28426;42.872;25.314;2023-05-22T06:22:09;96794.56;;;22.78;51.81
42771;BME280;28426;42.872;25.314;2023-05-22T06:24:45;96785.88;;;22.97;50.66
42771;BME280;28426;42.872;25.314;2023-05-22T06:27:19;96789.66;;;23.01;50.01
42771;BME280;28426;42.872;25.314;2023-05-22T06:29:50;96797.28;;;22.89;48.30
42771;BME280;28426;42.872;25.314;2023-05-22T06:32:24;96794.56;;;22.73;48.74
42771;BME280;28426;42.872;25.314;2023-05-22T06:34:56;96792.41;;;22.75;48.93
42771;BME280;28426;42.872;25.314;2023-05-22T06:37:32;96782.59;;;22.90;49.02
42771;BME280;28426;42.872;25.314;2023-05-22T06:40:11;96779.84;;;23.05;47.49
42771;BME280;28426;42.872;25.314;2023-05-22T06:42:49;96777.63;;;23.23;47.69
42771;BME280;28426;42.872;25.314;2023-05-22T06:45:20;96779.22;;;23.50;47.95
42771;BME280;28426;42.872;25.314;2023-05-22T06:48:18;96776.34;;;23.97;48.17
42771;BME280;28426;42.872;25.314;2023-05-22T06:51:10;96775.22;;;24.48;45.99
42771;BME280;28426;42.872;25.314;2023-05-22T06:53:42;96779.69;;;24.74;44.77
42771;BME280;28426;42.872;25.314;2023-05-22T06:56:20;96785.88;;;24.85;43.54
42771;BME280;28426;42.872;25.314;2023-05-22T06:59:02;96783.91;;;24.90;43.02
42771;BME280;28426;42.872;25.314;2023-05-22T07:01:56;96787.22;;;24.87;43.50
42771;BME280;28426;42.872;25.314;2023-05-22T07:04:49;96793.75;;;24.91;44.03
42771;BME280;28426;42.872;25.314;2023-05-22T07:07:38;96786.63;;;24.96;43.46
42771;BME280;28426;42.872;25.314;2023-05-22T07:10:09;96786.69;;;24.85;42.44
42771;BME280;28426;42.872;25.314;2023-05-22T07:12:43;96788.75;;;24.64;43.43
42771;BME280;28426;42.872;25.314;2023-05-22T07:15:14;96781.53;;;24.43;42.85
42771;BME280;28426;42.872;25.314;2023-05-22T07:17:50;96786.84;;;24.19;43.51
42771;BME280;28426;42.872;25.314;2023-05-22T07:20:22;96789.38;;;24.00;44.25
42771;BME280;28426;42.872;25.314;2023-05-22T07:23:05;96784.03;;;23.79;44.03
42771;BME280;28426;42.872;25.314;2023-05-22T07:25:37;96787.94;;;23.57;44.27
42771;BME280;28426;42.872;25.314;2023-05-22T07:28:12;96787.97;;;23.36;43.99
42771;BME280;28426;42.872;25.314;2023-05-22T07:30:56;96784.72;;;23.13;44.72
42771;BME280;28426;42.872;25.314;2023-05-22T07:33:28;96780.41;;;22.97;45.73
42771;BME280;28426;42.872;25.314;2023-05-22T07:35:59;96789.66;;;22.80;45.29
42771;BME280;28426;42.872;25.314;2023-05-22T07:38:30;96800.00;;;22.68;45.67
42771;BME280;28426;42.872;25.314;2023-05-22T07:41:02;96788.56;;;22.55;45.97
42771;BME280;28426;42.872;25.314;2023-05-22T07:43:36;96802.69;;;22.47;46.51
42771;BME280;28426;42.872;25.314;2023-05-22T07:46:09;96795.59;;;22.46;46.53
42771;BME280;28426;42.872;25.314;2023-05-22T07:48:53;96802.13;;;22.45;46.46
42771;BME280;28426;42.872;25.314;2023-05-22T07:51:24;96800.50;;;22.44;46.63
42771;BME280;28426;42.872;25.314;2023-05-22T07:53:55;96799.41;;;22.50;46.82
42771;BME280;28426;42.872;25.314;2023-05-22T07:56:51;96797.28;;;22.68;46.67
42771;BME280;28426;42.872;25.314;2023-05-22T07:59:26;96799.47;;;22.81;47.07
42771;BME280;28426;42.872;25.314;2023-05-22T08:01:58;96798.88;;;23.05;46.26
42771;BME280;28426;42.872;25.314;2023-05-22T08:04:29;96801.59;;;23.21;46.18
42771;BME280;28426;42.872;25.314;2023-05-22T08:07:00;96796.41;;;23.30;44.96
42771;BME280;28426;42.872;25.314;2023-05-22T08:09:31;96798.59;;;23.43;45.98
42771;BME280;28426;42.872;25.314;2023-05-22T08:12:02;96796.06;;;23.62;46.10
42771;BME280;28426;42.872;25.314;2023-05-22T08:14:36;96786.78;;;23.74;44.81
42771;BME280;28426;42.872;25.314;2023-05-22T08:17:07;96789.25;;;23.75;44.17
42771;BME280;28426;42.872;25.314;2023-05-22T08:19:39;96796.34;;;23.71;44.25
42771;BME280;28426;42.872;25.314;2023-05-22T08:22:09;96787.88;;;23.78;45.24
42771;BME280;28426;42.872;25.314;2023-05-22T08:24:40;96782.84;;;24.01;45.10
42771;BME280;28426;42.872;25.314;2023-05-22T08:27:11;96787.63;;;24.30;44.76
42771;BME280;28426;42.872;25.314;2023-05-22T08:29:44;96787.31;;;24.72;45.16
42771;BME280;28426;42.872;25.314;2023-05-22T08:32:15;96787.50;;;25.15;44.57
42771;BME280;28426;42.872;25.314;2023-05-22T08:34:46;96784.38;;;25.57;43.30
42771;BME280;28426;42.872;25.314;2023-05-22T08:37:17;96781.81;;;25.90;42.09
42771;BME280;28426;42.872;25.314;2023-05-22T08:39:48;96778.41;;;26.18;42.17
42771;BME280;28426;42.872;25.314;2023-05-22T08:42:19;96787.16;;;26.39;41.16
42771;BME280;28426;42.872;25.314;2023-05-22T08:44:52;96784.72;;;26.57;41.02
42771;BME280;28426;42.872;25.314;2023-05-22T08:47:35;96770.19;;;26.75;39.71
42771;BME280;28426;42.872;25.314;2023-05-22T08:50:07;96770.75;;;26.92;39.99
42771;BME280;28426;42.872;25.314;2023-05-22T08:52:49;96770.69;;;27.11;39.09
42771;BME280;28426;42.872;25.314;2023-05-22T08:55:20;96761.91;;;27.28;39.26
42771;BME280;28426;42.872;25.314;2023-05-22T08:57:52;96760.50;;;27.45;38.65
42771;BME280;28426;42.872;25.314;2023-05-22T09:00:27;96764.97;;;27.54;38.24
42771;BME280;28426;42.872;25.314;2023-05-22T09:02:58;96757.25;;;27.57;38.39
42771;BME280;28426;42.872;25.314;2023-05-22T09:05:29;96762.13;;;27.60;37.90
42771;BME280;28426;42.872;25.314;2023-05-22T09:08:02;96750.59;;;27.63;37.80
42771;BME280;28426;42.872;25.314;2023-05-22T09:10:46;96749.97;;;27.66;37.07
42771;BME280;28426;42.872;25.314;2023-05-22T09:13:24;96746.72;;;27.64;36.72
42771;BME280;28426;42.872;25.314;2023-05-22T09:16:07;96744.78;;;27.78;38.57
42771;BME280;28426;42.872;25.314;2023-05-22T09:18:39;96737.13;;;28.03;38.02
42771;BME280;28426;42.872;25.314;2023-05-22T09:21:13;96742.06;;;28.29;38.02
42771;BME280;28426;42.872;25.314;2023-05-22T09:23:59;96740.00;;;28.58;37.42
42771;BME280;28426;42.872;25.314;2023-05-22T09:26:30;96738.25;;;28.62;36.29
42771;BME280;28426;42.872;25.314;2023-05-22T09:29:00;96741.94;;;28.57;36.15
42771;BME280;28426;42.872;25.314;2023-05-22T09:31:39;96742.50;;;28.45;35.97
42771;BME280;28426;42.872;25.314;2023-05-22T09:34:13;96745.00;;;28.33;36.35
42771;BME280;28426;42.872;25.314;2023-05-22T09:36:44;96745.19;;;28.23;36.40
42771;BME280;28426;42.872;25.314;2023-05-22T09:39:16;96742.97;;;28.11;37.03
42771;BME280;28426;42.872;25.314;2023-05-22T09:41:47;96732.25;;;28.00;36.89
42771;BME280;28426;42.872;25.314;2023-05-22T09:44:18;96735.50;;;28.02;37.22
42771;BME280;28426;42.872;25.314;2023-05-22T09:46:53;96734.88;;;28.05;37.34
42771;BME280;28426;42.872;25.314;2023-05-22T09:49:24;96733.44;;;28.08;37.53
42771;BME280;28426;42.872;25.314;2023-05-22T09:51:55;96737.50;;;28.11;36.61
42771;BME280;28426;42.872;25.314;2023-05-22T09:54:30;96739.56;;;28.05;37.10
42771;BME280;28426;42.872;25.314;2023-05-22T09:57:05;96733.19;;;27.96;37.37
42771;BME280;28426;42.872;25.314;2023-05-22T09:59:40;96735.00;;;28.00;37.69
42771;BME280;28426;42.872;25.314;2023-05-22T10:02:16;96733.78;;;28.06;37.57
42771;BME280;28426;42.872;25.314;2023-05-22T10:04:48;96736.41;;;28.12;37.00
42771;BME280;28426;42.872;25.314;2023-05-22T10:07:21;96733.06;;;28.01;36.45
42771;BME280;28426;42.872;25.314;2023-05-22T10:10:02;96740.81;;;27.85;36.27
42771;BME280;28426;42.872;25.314;2023-05-22T10:12:40;96733.72;;;27.70;36.08
42771;BME280;28426;42.872;25.314;2023-05-22T10:15:12;96732.28;;;27.58;36.82
42771;BME280;28426;42.872;25.314;2023-05-22T10:17:46;96728.84;;;27.52;37.18
42771;BME280;28426;42.872;25.314;2023-05-22T10:20:18;96730.66;;;27.43;37.03
42771;BME280;28426;42.872;25.314;2023-05-22T10:22:49;96725.50;;;27.27;37.15
42771;BME280;28426;42.872;25.314;2023-05-22T10:25:20;96731.06;;;27.08;37.50
42771;BME280;28426;42.872;25.314;2023-05-22T10:27:53;96726.22;;;26.86;37.80
42771;BME280;28426;42.872;25.314;2023-05-22T10:30:31;96736.09;;;26.68;37.41
42771;BME280;28426;42.872;25.314;2023-05-22T10:33:28;96728.47;;;26.50;38.14
42771;BME280;28426;42.872;25.314;2023-05-22T10:36:04;96730.38;;;26.50;37.96
42771;BME280;28426;42.872;25.314;2023-05-22T10:38:49;96721.38;;;26.49;36.02
42771;BME280;28426;42.872;25.314;2023-05-22T10:41:24;96722.41;;;26.54;37.28
42771;BME280;28426;42.872;25.314;2023-05-22T10:43:57;96716.09;;;26.53;36.43
42771;BME280;28426;42.872;25.314;2023-05-22T10:46:31;96718.78;;;26.39;35.56
42771;BME280;28426;42.872;25.314;2023-05-22T10:49:05;96715.16;;;26.24;35.50
42771;BME280;28426;42.872;25.314;2023-05-22T10:51:36;96713.53;;;26.23;36.77
42771;BME280;28426;42.872;25.314;2023-05-22T10:54:08;96716.84;;;26.20;35.56
42771;BME280;28426;42.872;25.314;2023-05-22T10:56:39;96717.22;;;26.14;36.20
42771;BME280;28426;42.872;25.314;2023-05-22T10:59:09;96713.44;;;26.09;36.68
42771;BME280;28426;42.872;25.314;2023-05-22T11:01:40;96698.09;;;26.14;37.05
42771;BME280;28426;42.872;25.314;2023-05-22T11:04:23;96694.63;;;26.08;37.59
42771;BME280;28426;42.872;25.314;2023-05-22T11:07:01;96688.84;;;26.09;37.75
42771;BME280;28426;42.872;25.314;2023-05-22T11:09:39;96687.31;;;26.03;35.70
42771;BME280;28426;42.872;25.314;2023-05-22T11:12:14;96687.22;;;25.89;34.81
42771;BME280;28426;42.872;25.314;2023-05-22T11:14:53;96687.53;;;25.68;36.11
42771;BME280;28426;42.872;25.314;2023-05-22T11:17:26;96688.56;;;25.48;36.90
42771;BME280;28426;42.872;25.314;2023-05-22T11:20:02;96678.47;;;25.24;37.24
42771;BME280;28426;42.872;25.314;2023-05-22T11:22:36;96688.53;;;25.04;37.07
42771;BME280;28426;42.872;25.314;2023-05-22T11:25:09;96672.66;;;24.82;37.04
42771;BME280;28426;42.872;25.314;2023-05-22T11:27:40;96672.28;;;24.64;37.25
42771;BME280;28426;42.872;25.314;2023-05-22T11:30:12;96683.91;;;24.40;38.29
42771;BME280;28426;42.872;25.314;2023-05-22T11:32:44;96680.31;;;24.15;38.62
42771;BME280;28426;42.872;25.314;2023-05-22T11:35:19;96672.19;;;24.00;39.15
42771;BME280;28426;42.872;25.314;2023-05-22T11:37:50;96676.63;;;23.90;39.10
42771;BME280;28426;42.872;25.314;2023-05-22T11:40:23;96664.19;;;23.79;38.56
42771;BME280;28426;42.872;25.314;2023-05-22T11:42:54;96666.09;;;23.73;39.72
42771;BME280;28426;42.872;25.314;2023-05-22T11:45:25;96663.41;;;23.68;38.92
42771;BME280;28426;42.872;25.314;2023-05-22T11:47:56;96662.09;;;23.60;39.00
42771;BME280;28426;42.872;25.314;2023-05-22T11:50:31;96661.63;;;23.48;38.25
42771;BME280;28426;42.872;25.314;2023-05-22T11:53:09;96655.69;;;23.35;39.34
42771;BME280;28426;42.872;25.314;2023-05-22T11:55:41;96650.25;;;23.25;39.52
42771;BME280;28426;42.872;25.314;2023-05-22T11:58:12;96645.13;;;23.18;40.08
42771;BME280;28426;42.872;25.314;2023-05-22T12:00:46;96650.31;;;23.15;39.96
42771;BME280;28426;42.872;25.314;2023-05-22T12:03:17;96646.22;;;23.12;40.18
42771;BME280;28426;42.872;25.314;2023-05-22T12:05:53;96644.59;;;23.11;40.24
42771;BME280;28426;42.872;25.314;2023-05-22T12:08:25;96654.69;;;23.10;40.56
42771;BME280;28426;42.872;25.314;2023-05-22T12:10:56;96649.25;;;23.10;40.87
42771;BME280;28426;42.872;25.314;2023-05-22T12:13:28;96652.47;;;23.12;40.86
42771;BME280;28426;42.872;25.314;2023-05-22T12:15:59;96650.31;;;23.15;40.49
42771;BME280;28426;42.872;25.314;2023-05-22T12:18:35;96649.72;;;23.18;39.63
42771;BME280;28426;42.872;25.314;2023-05-22T12:21:09;96644.03;;;23.19;38.74
42771;BME280;28426;42.872;25.314;2023-05-22T12:23:47;96637.75;;;23.19;38.25
42771;BME280;28426;42.872;25.314;2023-05-22T12:26:18;96641.03;;;23.16;38.36
42771;BME280;28426;42.872;25.314;2023-05-22T12:28:51;96644.03;;;23.14;38.71
42771;BME280;28426;42.872;25.314;2023-05-22T12:31:23;96641.03;;;23.16;39.28
42771;BME280;28426;42.872;25.314;2023-05-22T12:33:55;96647.00;;;23.23;39.21
42771;BME280;28426;42.872;25.314;2023-05-22T12:36:37;96625.75;;;23.30;38.71
42771;BME280;28426;42.872;25.314;2023-05-22T12:39:11;96625.47;;;23.37;39.42
42771;BME280;28426;42.872;25.314;2023-05-22T12:41:42;96616.47;;;23.42;38.59
42771;BME280;28426;42.872;25.314;2023-05-22T12:44:14;96617.25;;;23.42;38.73
42771;BME280;28426;42.872;25.314;2023-05-22T12:46:46;96608.56;;;23.40;39.86
42771;BME280;28426;42.872;25.314;2023-05-22T12:49:17;96603.63;;;23.47;40.10
42771;BME280;28426;42.872;25.314;2023-05-22T12:51:50;96604.41;;;23.53;39.64
42771;BME280;28426;42.872;25.314;2023-05-22T12:54:21;96596.47;;;23.62;39.18
42771;BME280;28426;42.872;25.314;2023-05-22T12:56:52;96602.94;;;23.71;38.63
42771;BME280;28426;42.872;25.314;2023-05-22T12:59:23;96590.69;;;23.69;37.63
42771;BME280;28426;42.872;25.314;2023-05-22T13:01:54;96595.09;;;23.64;38.61
42771;BME280;28426;42.872;25.314;2023-05-22T13:04:28;96591.84;;;23.57;38.12
42771;BME280;28426;42.872;25.314;2023-05-22T13:07:02;96595.72;;;23.46;38.39
42771;BME280;28426;42.872;25.314;2023-05-22T13:09:33;96597.41;;;23.36;38.34
42771;BME280;28426;42.872;25.314;2023-05-22T13:12:06;96600.16;;;23.26;38.62
42771;BME280;28426;42.872;25.314;2023-05-22T13:14:37;96595.59;;;23.11;38.36
42771;BME280;28426;42.872;25.314;2023-05-22T13:17:08;96602.47;;;22.98;38.53
42771;BME280;28426;42.872;25.314;2023-05-22T13:19:39;96603.59;;;22.86;38.72
42771;BME280;28426;42.872;25.314;2023-05-22T13:22:13;96602.25;;;22.79;38.67
42771;BME280;28426;42.872;25.314;2023-05-22T13:24:45;96589.50;;;22.69;39.35
42771;BME280;28426;42.872;25.314;2023-05-22T13:27:16;96594.44;;;22.62;40.50